CheckWX is a tool to help pilots better visualize weather data.  It is not intended as a substitute for an official pre-flight weather briefing.

17:31:29 UTC

SPLO TAF
Ilo Airport
Ilo, Peru
SPLO 231700Z 2318/2418 14008KT CAVOK TX25/2319Z TN16/2411Z

Mar-23@
18:00 UTC

Mar-23 @ 18:00 UTC

Mar-24@
18:00 UTC

Mar-24 @ 18:00 UTC

SPLO 231700Z 2318/2418 14008KT CAVOK TX25/2319Z TN16/2411Z
Wind
  • 140° at 8 KTS
Cloud Levels
  • No significant clouds